sensor_id;sensor_type;location;lat;lon;timestamp;temperature;humidity
51725;DHT22;37801;53.224;6.552;2023-04-24T00:02:16;11.00;99.90
51725;DHT22;37801;53.224;6.552;2023-04-24T00:04:42;11.30;99.90
51725;DHT22;37801;53.224;6.552;2023-04-24T00:07:11;11.00;99.90
51725;DHT22;37801;53.224;6.552;2023-04-24T00:09:36;11.30;99.90
51725;DHT22;37801;53.224;6.552;2023-04-24T00:12:03;11.10;99.90
51725;DHT22;37801;53.224;6.552;2023-04-24T00:14:31;11.30;99.90
51725;DHT22;37801;53.224;6.552;2023-04-24T00:16:57;11.10;99.90
51725;DHT22;37801;53.224;6.552;2023-04-24T00:19:23;11.00;99.90
51725;DHT22;37801;53.224;6.552;2023-04-24T00:21:49;11.40;99.90
51725;DHT22;37801;53.224;6.552;2023-04-24T00:24:17;11.30;99.90
51725;DHT22;37801;53.224;6.552;2023-04-24T00:26:43;11.10;99.90
51725;DHT22;37801;53.224;6.552;2023-04-24T00:29:09;11.30;99.90
51725;DHT22;37801;53.224;6.552;2023-04-24T00:31:35;11.40;99.90
51725;DHT22;37801;53.224;6.552;2023-04-24T00:34:01;11.20;99.90
51725;DHT22;37801;53.224;6.552;2023-04-24T00:36:28;11.40;99.90
51725;DHT22;37801;53.224;6.552;2023-04-24T00:38:54;11.20;99.90
51725;DHT22;37801;53.224;6.552;2023-04-24T00:41:21;11.40;99.90
51725;DHT22;37801;53.224;6.552;2023-04-24T00:43:47;10.90;99.90
51725;DHT22;37801;53.224;6.552;2023-04-24T00:46:14;11.10;99.90
51725;DHT22;37801;53.224;6.552;2023-04-24T00:48:40;10.90;99.90
51725;DHT22;37801;53.224;6.552;2023-04-24T00:51:06;11.20;99.90
51725;DHT22;37801;53.224;6.552;2023-04-24T00:53:32;11.20;99.90
51725;DHT22;37801;53.224;6.552;2023-04-24T00:55:58;10.80;99.90
51725;DHT22;37801;53.224;6.552;2023-04-24T00:58:25;11.10;99.90
51725;DHT22;37801;53.224;6.552;2023-04-24T01:00:52;11.20;99.90
51725;DHT22;37801;53.224;6.552;2023-04-24T01:03:25;10.70;99.90
51725;DHT22;37801;53.224;6.552;2023-04-24T01:05:52;10.70;99.90
51725;DHT22;37801;53.224;6.552;2023-04-24T01:08:22;11.00;99.90
51725;DHT22;37801;53.224;6.552;2023-04-24T01:10:52;10.80;99.90
51725;DHT22;37801;53.224;6.552;2023-04-24T01:13:21;10.90;99.90
51725;DHT22;37801;53.224;6.552;2023-04-24T01:15:48;10.90;99.90
51725;DHT22;37801;53.224;6.552;2023-04-24T01:18:14;10.90;99.90
51725;DHT22;37801;53.224;6.552;2023-04-24T01:20:41;10.50;99.90
51725;DHT22;37801;53.224;6.552;2023-04-24T01:23:08;10.50;99.90
51725;DHT22;37801;53.224;6.552;2023-04-24T01:25:34;10.80;99.90
51725;DHT22;37801;53.224;6.552;2023-04-24T01:28:00;10.80;99.90
51725;DHT22;37801;53.224;6.552;2023-04-24T01:30:26;10.90;99.90
51725;DHT22;37801;53.224;6.552;2023-04-24T01:32:53;10.80;99.90
51725;DHT22;37801;53.224;6.552;2023-04-24T01:35:19;10.70;99.90
51725;DHT22;37801;53.224;6.552;2023-04-24T01:37:45;10.50;99.90
51725;DHT22;37801;53.224;6.552;2023-04-24T01:40:11;10.60;99.90
51725;DHT22;37801;53.224;6.552;2023-04-24T01:42:37;10.60;99.90
51725;DHT22;37801;53.224;6.552;2023-04-24T01:45:04;10.60;99.90
51725;DHT22;37801;53.224;6.552;2023-04-24T01:47:31;10.50;99.90
51725;DHT22;37801;53.224;6.552;2023-04-24T01:49:57;10.70;99.90
51725;DHT22;37801;53.224;6.552;2023-04-24T01:52:23;10.60;99.90
51725;DHT22;37801;53.224;6.552;2023-04-24T01:54:49;10.70;99.90
51725;DHT22;37801;53.224;6.552;2023-04-24T01:57:16;10.70;99.90
51725;DHT22;37801;53.224;6.552;2023-04-24T01:59:42;10.40;99.90
51725;DHT22;37801;53.224;6.552;2023-04-24T02:02:08;10.40;99.90
51725;DHT22;37801;53.224;6.552;2023-04-24T02:04:34;10.30;99.90
51725;DHT22;37801;53.224;6.552;2023-04-24T02:06:59;10.30;99.90
51725;DHT22;37801;53.224;6.552;2023-04-24T02:09:25;10.30;99.90
51725;DHT22;37801;53.224;6.552;2023-04-24T02:11:51;10.50;99.90
51725;DHT22;37801;53.224;6.552;2023-04-24T02:14:17;10.70;99.90
51725;DHT22;37801;53.224;6.552;2023-04-24T02:16:43;10.30;99.90
51725;DHT22;37801;53.224;6.552;2023-04-24T02:19:09;10.30;99.90
51725;DHT22;37801;53.224;6.552;2023-04-24T02:21:36;10.70;99.90
51725;DHT22;37801;53.224;6.552;2023-04-24T02:24:01;10.50;99.90
51725;DHT22;37801;53.224;6.552;2023-04-24T02:26:27;10.80;99.90
51725;DHT22;37801;53.224;6.552;2023-04-24T02:28:53;10.30;99.90
51725;DHT22;37801;53.224;6.552;2023-04-24T02:31:19;10.80;99.90
51725;DHT22;37801;53.224;6.552;2023-04-24T02:33:44;10.40;99.90
51725;DHT22;37801;53.224;6.552;2023-04-24T02:36:10;10.60;99.90
51725;DHT22;37801;53.224;6.552;2023-04-24T02:38:36;10.40;99.90
51725;DHT22;37801;53.224;6.552;2023-04-24T02:41:02;10.80;99.90
51725;DHT22;37801;53.224;6.552;2023-04-24T02:43:32;10.50;99.90
51725;DHT22;37801;53.224;6.552;2023-04-24T02:45:59;10.70;99.90
51725;DHT22;37801;53.224;6.552;2023-04-24T02:48:25;10.90;99.90
51725;DHT22;37801;53.224;6.552;2023-04-24T02:50:51;10.70;99.90
51725;DHT22;37801;53.224;6.552;2023-04-24T02:53:17;10.90;99.90
51725;DHT22;37801;53.224;6.552;2023-04-24T02:55:42;10.90;99.90
51725;DHT22;37801;53.224;6.552;2023-04-24T02:58:08;10.60;99.90
51725;DHT22;37801;53.224;6.552;2023-04-24T03:00:34;10.90;99.90
51725;DHT22;37801;53.224;6.552;2023-04-24T03:03:00;10.70;99.90
51725;DHT22;37801;53.224;6.552;2023-04-24T03:05:25;10.90;99.90
51725;DHT22;37801;53.224;6.552;2023-04-24T03:07:52;10.90;99.90
51725;DHT22;37801;53.224;6.552;2023-04-24T03:10:18;10.60;99.90
51725;DHT22;37801;53.224;6.552;2023-04-24T03:12:44;10.60;99.90
51725;DHT22;37801;53.224;6.552;2023-04-24T03:15:10;10.40;99.90
51725;DHT22;37801;53.224;6.552;2023-04-24T03:17:36;10.90;99.90
51725;DHT22;37801;53.224;6.552;2023-04-24T03:20:03;10.80;99.90
51725;DHT22;37801;53.224;6.552;2023-04-24T03:22:30;10.40;99.90
51725;DHT22;37801;53.224;6.552;2023-04-24T03:24:58;10.40;99.90
51725;DHT22;37801;53.224;6.552;2023-04-24T03:27:23;10.40;99.90
51725;DHT22;37801;53.224;6.552;2023-04-24T03:29:49;10.90;99.90
51725;DHT22;37801;53.224;6.552;2023-04-24T03:32:19;10.90;99.90
51725;DHT22;37801;53.224;6.552;2023-04-24T03:34:45;10.40;99.90
51725;DHT22;37801;53.224;6.552;2023-04-24T03:37:10;10.40;99.90
51725;DHT22;37801;53.224;6.552;2023-04-24T03:39:36;10.80;99.90
51725;DHT22;37801;53.224;6.552;2023-04-24T03:42:02;10.50;99.90
51725;DHT22;37801;53.224;6.552;2023-04-24T03:44:31;10.60;99.90
51725;DHT22;37801;53.224;6.552;2023-04-24T03:46:58;10.60;99.90
51725;DHT22;37801;53.224;6.552;2023-04-24T03:49:23;11.00;99.90
51725;DHT22;37801;53.224;6.552;2023-04-24T03:51:49;10.50;99.90
51725;DHT22;37801;53.224;6.552;2023-04-24T03:54:15;10.90;99.90
51725;DHT22;37801;53.224;6.552;2023-04-24T03:56:40;10.90;99.90
51725;DHT22;37801;53.224;6.552;2023-04-24T03:59:06;10.70;99.90
51725;DHT22;37801;53.224;6.552;2023-04-24T04:01:32;10.50;99.90
51725;DHT22;37801;53.224;6.552;2023-04-24T04:03:58;10.80;99.90
51725;DHT22;37801;53.224;6.552;2023-04-24T04:06:24;10.50;99.90
51725;DHT22;37801;53.224;6.552;2023-04-24T04:08:49;10.70;99.90
51725;DHT22;37801;53.224;6.552;2023-04-24T04:11:15;10.50;99.90
51725;DHT22;37801;53.224;6.552;2023-04-24T04:13:41;10.90;99.90
51725;DHT22;37801;53.224;6.552;2023-04-24T04:16:06;10.40;99.90
51725;DHT22;37801;53.224;6.552;2023-04-24T04:18:34;10.60;99.90
51725;DHT22;37801;53.224;6.552;2023-04-24T04:20:59;10.60;99.90
51725;DHT22;37801;53.224;6.552;2023-04-24T04:23:26;10.60;99.90
51725;DHT22;37801;53.224;6.552;2023-04-24T04:25:53;10.90;99.90
51725;DHT22;37801;53.224;6.552;2023-04-24T04:28:20;10.60;99.90
51725;DHT22;37801;53.224;6.552;2023-04-24T04:30:46;10.60;99.90
51725;DHT22;37801;53.224;6.552;2023-04-24T04:33:13;10.50;99.90
51725;DHT22;37801;53.224;6.552;2023-04-24T04:35:40;10.80;99.90
51725;DHT22;37801;53.224;6.552;2023-04-24T04:38:06;10.80;99.90
51725;DHT22;37801;53.224;6.552;2023-04-24T04:40:33;10.40;99.90
51725;DHT22;37801;53.224;6.552;2023-04-24T04:42:59;10.80;99.90
51725;DHT22;37801;53.224;6.552;2023-04-24T04:45:25;10.70;99.90
51725;DHT22;37801;53.224;6.552;2023-04-24T04:47:53;10.90;99.90
51725;DHT22;37801;53.224;6.552;2023-04-24T04:50:20;10.50;99.90
51725;DHT22;37801;53.224;6.552;2023-04-24T04:52:46;10.80;99.90
51725;DHT22;37801;53.224;6.552;2023-04-24T04:55:11;10.90;99.90
51725;DHT22;37801;53.224;6.552;2023-04-24T04:57:39;10.90;99.90
51725;DHT22;37801;53.224;6.552;2023-04-24T05:00:05;10.90;99.90
51725;DHT22;37801;53.224;6.552;2023-04-24T05:02:32;10.70;99.90
51725;DHT22;37801;53.224;6.552;2023-04-24T05:04:58;10.50;99.90
51725;DHT22;37801;53.224;6.552;2023-04-24T05:07:23;10.70;99.90
51725;DHT22;37801;53.224;6.552;2023-04-24T05:09:49;10.70;99.90
51725;DHT22;37801;53.224;6.552;2023-04-24T05:12:16;10.90;99.90
51725;DHT22;37801;53.224;6.552;2023-04-24T05:14:42;10.60;99.90
51725;DHT22;37801;53.224;6.552;2023-04-24T05:17:08;10.70;99.90
51725;DHT22;37801;53.224;6.552;2023-04-24T05:19:34;10.80;99.90
51725;DHT22;37801;53.224;6.552;2023-04-24T05:22:01;10.50;99.90
51725;DHT22;37801;53.224;6.552;2023-04-24T05:24:29;10.60;99.90
51725;DHT22;37801;53.224;6.552;2023-04-24T05:26:55;10.80;99.90
51725;DHT22;37801;53.224;6.552;2023-04-24T05:29:21;10.70;99.90
51725;DHT22;37801;53.224;6.552;2023-04-24T05:31:46;10.70;99.90
51725;DHT22;37801;53.224;6.552;2023-04-24T05:34:12;10.40;99.90
51725;DHT22;37801;53.224;6.552;2023-04-24T05:36:38;10.80;99.90
51725;DHT22;37801;53.224;6.552;2023-04-24T05:39:03;10.40;99.90
51725;DHT22;37801;53.224;6.552;2023-04-24T05:41:30;10.40;99.90
51725;DHT22;37801;53.224;6.552;2023-04-24T05:43:56;10.80;99.90
51725;DHT22;37801;53.224;6.552;2023-04-24T05:46:21;10.50;99.90
51725;DHT22;37801;53.224;6.552;2023-04-24T05:48:47;10.50;99.90
51725;DHT22;37801;53.224;6.552;2023-04-24T05:51:13;10.30;99.90
51725;DHT22;37801;53.224;6.552;2023-04-24T05:53:39;10.70;99.90
51725;DHT22;37801;53.224;6.552;2023-04-24T05:56:04;10.70;99.90
51725;DHT22;37801;53.224;6.552;2023-04-24T05:58:30;10.60;99.90
51725;DHT22;37801;53.224;6.552;2023-04-24T06:00:56;10.20;99.90
51725;DHT22;37801;53.224;6.552;2023-04-24T06:03:24;10.50;99.90
51725;DHT22;37801;53.224;6.552;2023-04-24T06:05:50;10.30;99.90
51725;DHT22;37801;53.224;6.552;2023-04-24T06:08:16;10.20;99.90
51725;DHT22;37801;53.224;6.552;2023-04-24T06:10:42;10.50;99.90
51725;DHT22;37801;53.224;6.552;2023-04-24T06:13:08;10.40;99.90
51725;DHT22;37801;53.224;6.552;2023-04-24T06:15:33;10.10;99.90
51725;DHT22;37801;53.224;6.552;2023-04-24T06:17:59;10.50;99.90
51725;DHT22;37801;53.224;6.552;2023-04-24T06:20:25;10.30;99.90
51725;DHT22;37801;53.224;6.552;2023-04-24T06:22:51;10.10;99.90
51725;DHT22;37801;53.224;6.552;2023-04-24T06:25:17;10.20;99.90
51725;DHT22;37801;53.224;6.552;2023-04-24T06:27:43;10.60;99.90
51725;DHT22;37801;53.224;6.552;2023-04-24T06:30:09;10.40;99.90
51725;DHT22;37801;53.224;6.552;2023-04-24T06:32:35;10.60;99.90
51725;DHT22;37801;53.224;6.552;2023-04-24T06:35:01;10.50;99.90
51725;DHT22;37801;53.224;6.552;2023-04-24T06:37:26;10.70;99.90
51725;DHT22;37801;53.224;6.552;2023-04-24T06:39:52;10.20;99.90
51725;DHT22;37801;53.224;6.552;2023-04-24T06:42:18;10.60;99.90
51725;DHT22;37801;53.224;6.552;2023-04-24T06:44:46;10.10;99.90
51725;DHT22;37801;53.224;6.552;2023-04-24T06:47:12;10.40;99.90
51725;DHT22;37801;53.224;6.552;2023-04-24T06:49:41;10.50;99.90
51725;DHT22;37801;53.224;6.552;2023-04-24T06:52:07;10.40;99.90
51725;DHT22;37801;53.224;6.552;2023-04-24T06:54:33;10.60;99.90
51725;DHT22;37801;53.224;6.552;2023-04-24T06:56:59;10.10;99.90
51725;DHT22;37801;53.224;6.552;2023-04-24T06:59:26;10.30;99.90
51725;DHT22;37801;53.224;6.552;2023-04-24T07:01:53;10.50;99.90
51725;DHT22;37801;53.224;6.552;2023-04-24T07:04:18;10.40;99.90
51725;DHT22;37801;53.224;6.552;2023-04-24T07:06:48;10.10;99.90
51725;DHT22;37801;53.224;6.552;2023-04-24T07:09:15;10.40;99.90
51725;DHT22;37801;53.224;6.552;2023-04-24T07:11:47;10.10;99.90
51725;DHT22;37801;53.224;6.552;2023-04-24T07:14:13;9.90;99.90
51725;DHT22;37801;53.224;6.552;2023-04-24T07:16:39;10.20;99.90
51725;DHT22;37801;53.224;6.552;2023-04-24T07:19:05;10.20;99.90
51725;DHT22;37801;53.224;6.552;2023-04-24T07:21:30;10.10;99.90
51725;DHT22;37801;53.224;6.552;2023-04-24T07:23:58;9.80;99.90
51725;DHT22;37801;53.224;6.552;2023-04-24T07:26:23;10.30;99.90
51725;DHT22;37801;53.224;6.552;2023-04-24T07:28:50;9.80;99.90
51725;DHT22;37801;53.224;6.552;2023-04-24T07:31:16;9.90;99.90
51725;DHT22;37801;53.224;6.552;2023-04-24T07:33:41;9.80;99.90
51725;DHT22;37801;53.224;6.552;2023-04-24T07:36:07;9.90;99.90
51725;DHT22;37801;53.224;6.552;2023-04-24T07:38:33;10.00;99.90
51725;DHT22;37801;53.224;6.552;2023-04-24T07:40:59;10.20;99.90
51725;DHT22;37801;53.224;6.552;2023-04-24T07:43:24;10.20;99.90
51725;DHT22;37801;53.224;6.552;2023-04-24T07:45:51;9.90;99.90
51725;DHT22;37801;53.224;6.552;2023-04-24T07:48:17;10.30;99.90
51725;DHT22;37801;53.224;6.552;2023-04-24T07:50:44;9.80;99.90
51725;DHT22;37801;53.224;6.552;2023-04-24T07:53:10;10.10;99.90
51725;DHT22;37801;53.224;6.552;2023-04-24T07:55:36;10.10;99.90
51725;DHT22;37801;53.224;6.552;2023-04-24T07:58:01;9.80;99.90
51725;DHT22;37801;53.224;6.552;2023-04-24T08:00:27;9.90;99.90
51725;DHT22;37801;53.224;6.552;2023-04-24T08:02:53;9.70;99.90
51725;DHT22;37801;53.224;6.552;2023-04-24T08:05:18;9.50;99.90
51725;DHT22;37801;53.224;6.552;2023-04-24T08:07:46;9.90;99.90
51725;DHT22;37801;53.224;6.552;2023-04-24T08:10:14;9.90;99.90
51725;DHT22;37801;53.224;6.552;2023-04-24T08:12:40;9.90;99.90
51725;DHT22;37801;53.224;6.552;2023-04-24T08:15:06;9.50;99.90
51725;DHT22;37801;53.224;6.552;2023-04-24T08:17:34;9.60;99.90
51725;DHT22;37801;53.224;6.552;2023-04-24T08:20:01;9.70;99.90
51725;DHT22;37801;53.224;6.552;2023-04-24T08:22:28;9.50;99.90
51725;DHT22;37801;53.224;6.552;2023-04-24T08:24:54;9.50;99.90
51725;DHT22;37801;53.224;6.552;2023-04-24T08:27:21;9.90;99.90
51725;DHT22;37801;53.224;6.552;2023-04-24T08:29:47;9.70;99.90
51725;DHT22;37801;53.224;6.552;2023-04-24T08:32:12;9.50;99.90
51725;DHT22;37801;53.224;6.552;2023-04-24T08:34:38;9.60;99.90
51725;DHT22;37801;53.224;6.552;2023-04-24T08:37:04;9.40;99.90
51725;DHT22;37801;53.224;6.552;2023-04-24T08:39:30;9.60;99.90
51725;DHT22;37801;53.224;6.552;2023-04-24T08:41:56;9.70;99.90
51725;DHT22;37801;53.224;6.552;2023-04-24T08:44:21;9.60;99.90
51725;DHT22;37801;53.224;6.552;2023-04-24T08:46:48;9.50;99.90
51725;DHT22;37801;53.224;6.552;2023-04-24T08:49:15;9.50;99.90
51725;DHT22;37801;53.224;6.552;2023-04-24T08:51:44;9.60;99.90
51725;DHT22;37801;53.224;6.552;2023-04-24T08:54:12;9.60;99.90
51725;DHT22;37801;53.224;6.552;2023-04-24T08:56:40;9.60;99.90
51725;DHT22;37801;53.224;6.552;2023-04-24T08:59:09;9.10;99.90
51725;DHT22;37801;53.224;6.552;2023-04-24T09:01:34;9.00;99.90
51725;DHT22;37801;53.224;6.552;2023-04-24T09:04:03;9.30;99.90
51725;DHT22;37801;53.224;6.552;2023-04-24T09:06:30;9.40;99.90
51725;DHT22;37801;53.224;6.552;2023-04-24T09:09:01;9.30;99.90
51725;DHT22;37801;53.224;6.552;2023-04-24T09:11:27;9.50;99.90
51725;DHT22;37801;53.224;6.552;2023-04-24T09:13:54;9.00;99.90
51725;DHT22;37801;53.224;6.552;2023-04-24T09:16:20;9.30;99.90
51725;DHT22;37801;53.224;6.552;2023-04-24T09:18:48;8.90;99.90
51725;DHT22;37801;53.224;6.552;2023-04-24T09:21:14;9.30;99.90
51725;DHT22;37801;53.224;6.552;2023-04-24T09:23:41;9.20;99.90
51725;DHT22;37801;53.224;6.552;2023-04-24T09:26:09;9.20;99.90
51725;DHT22;37801;53.224;6.552;2023-04-24T09:28:38;9.10;99.90
51725;DHT22;37801;53.224;6.552;2023-04-24T09:31:22;9.10;99.90
51725;DHT22;37801;53.224;6.552;2023-04-24T09:33:55;9.00;99.90
51725;DHT22;37801;53.224;6.552;2023-04-24T09:36:47;9.00;99.90
51725;DHT22;37801;53.224;6.552;2023-04-24T09:39:15;9.10;99.90
51725;DHT22;37801;53.224;6.552;2023-04-24T09:41:50;9.10;99.90
51725;DHT22;37801;53.224;6.552;2023-04-24T09:44:21;9.00;99.90
51725;DHT22;37801;53.224;6.552;2023-04-24T09:46:54;9.00;99.90
51725;DHT22;37801;53.224;6.552;2023-04-24T09:49:28;9.00;99.90
51725;DHT22;37801;53.224;6.552;2023-04-24T09:52:04;9.00;99.90
51725;DHT22;37801;53.224;6.552;2023-04-24T09:54:30;9.00;99.90
51725;DHT22;37801;53.224;6.552;2023-04-24T09:56:57;9.00;99.90
51725;DHT22;37801;53.224;6.552;2023-04-24T09:59:22;9.00;99.90
51725;DHT22;37801;53.224;6.552;2023-04-24T10:01:48;9.00;99.90
51725;DHT22;37801;53.224;6.552;2023-04-24T10:04:19;9.10;99.90
51725;DHT22;37801;53.224;6.552;2023-04-24T10:06:46;9.20;99.90
51725;DHT22;37801;53.224;6.552;2023-04-24T10:09:12;9.30;99.90
51725;DHT22;37801;53.224;6.552;2023-04-24T10:11:47;9.30;99.90
51725;DHT22;37801;53.224;6.552;2023-04-24T10:14:14;9.40;99.90
51725;DHT22;37801;53.224;6.552;2023-04-24T10:16:42;9.30;99.90
51725;DHT22;37801;53.224;6.552;2023-04-24T10:19:08;9.40;99.90
51725;DHT22;37801;53.224;6.552;2023-04-24T10:21:34;9.40;99.90
51725;DHT22;37801;53.224;6.552;2023-04-24T10:24:01;9.40;99.90
51725;DHT22;37801;53.224;6.552;2023-04-24T10:26:29;9.40;99.90
51725;DHT22;37801;53.224;6.552;2023-04-24T10:28:57;9.50;99.90
51725;DHT22;37801;53.224;6.552;2023-04-24T10:31:23;9.40;99.90
51725;DHT22;37801;53.224;6.552;2023-04-24T10:33:50;9.40;99.90
51725;DHT22;37801;53.224;6.552;2023-04-24T10:36:18;9.40;99.90
51725;DHT22;37801;53.224;6.552;2023-04-24T10:38:46;9.40;99.90
51725;DHT22;37801;53.224;6.552;2023-04-24T10:41:13;9.50;99.90
51725;DHT22;37801;53.224;6.552;2023-04-24T10:43:45;9.50;99.90
51725;DHT22;37801;53.224;6.552;2023-04-24T10:46:19;9.50;99.90
51725;DHT22;37801;53.224;6.552;2023-04-24T10:48:55;9.60;99.90
51725;DHT22;37801;53.224;6.552;2023-04-24T10:51:23;9.50;99.90
51725;DHT22;37801;53.224;6.552;2023-04-24T10:53:52;9.60;99.90
51725;DHT22;37801;53.224;6.552;2023-04-24T10:56:18;9.70;99.90
51725;DHT22;37801;53.224;6.552;2023-04-24T10:58:51;9.80;99.90
51725;DHT22;37801;53.224;6.552;2023-04-24T11:01:29;9.80;99.90
51725;DHT22;37801;53.224;6.552;2023-04-24T11:04:00;9.80;99.90
51725;DHT22;37801;53.224;6.552;2023-04-24T11:06:34;9.80;99.90
51725;DHT22;37801;53.224;6.552;2023-04-24T11:09:09;9.80;99.90
51725;DHT22;37801;53.224;6.552;2023-04-24T11:11:36;9.70;99.90
51725;DHT22;37801;53.224;6.552;2023-04-24T11:14:09;9.70;99.90
51725;DHT22;37801;53.224;6.552;2023-04-24T11:16:47;9.60;99.90
51725;DHT22;37801;53.224;6.552;2023-04-24T11:21:45;9.50;99.90
51725;DHT22;37801;53.224;6.552;2023-04-24T11:27:13;9.30;99.90
51725;DHT22;37801;53.224;6.552;2023-04-24T11:29:49;9.30;99.90
51725;DHT22;37801;53.224;6.552;2023-04-24T11:32:41;9.40;99.90
51725;DHT22;37801;53.224;6.552;2023-04-24T11:35:17;9.50;99.90
51725;DHT22;37801;53.224;6.552;2023-04-24T11:37:44;9.50;99.90
51725;DHT22;37801;53.224;6.552;2023-04-24T11:40:16;9.50;99.90
51725;DHT22;37801;53.224;6.552;2023-04-24T11:42:44;9.40;99.90
51725;DHT22;37801;53.224;6.552;2023-04-24T11:45:11;9.30;99.90
51725;DHT22;37801;53.224;6.552;2023-04-24T11:47:38;9.20;99.90
51725;DHT22;37801;53.224;6.552;2023-04-24T11:50:08;9.30;99.90
51725;DHT22;37801;53.224;6.552;2023-04-24T11:52:39;9.40;99.90
51725;DHT22;37801;53.224;6.552;2023-04-24T11:57:59;9.50;99.90
51725;DHT22;37801;53.224;6.552;2023-04-24T12:00:28;9.50;99.90
51725;DHT22;37801;53.224;6.552;2023-04-24T12:03:11;9.50;99.90
51725;DHT22;37801;53.224;6.552;2023-04-24T12:05:37;9.40;99.90
51725;DHT22;37801;53.224;6.552;2023-04-24T12:08:04;9.40;99.90
51725;DHT22;37801;53.224;6.552;2023-04-24T12:10:31;9.50;99.90
51725;DHT22;37801;53.224;6.552;2023-04-24T12:12:58;9.40;99.90
51725;DHT22;37801;53.224;6.552;2023-04-24T12:15:24;9.40;99.90
51725;DHT22;37801;53.224;6.552;2023-04-24T12:17:52;9.40;99.90
51725;DHT22;37801;53.224;6.552;2023-04-24T12:20:24;9.40;99.90
51725;DHT22;37801;53.224;6.552;2023-04-24T12:22:55;9.40;99.90
51725;DHT22;37801;53.224;6.552;2023-04-24T12:25:23;9.60;99.90
51725;DHT22;37801;53.224;6.552;2023-04-24T12:30:27;9.80;99.90
51725;DHT22;37801;53.224;6.552;2023-04-24T12:32:58;9.80;99.90
51725;DHT22;37801;53.224;6.552;2023-04-24T12:35:28;9.70;99.90
51725;DHT22;37801;53.224;6.552;2023-04-24T12:37:54;9.70;99.90
51725;DHT22;37801;53.224;6.552;2023-04-24T12:40:21;9.80;99.90
51725;DHT22;37801;53.224;6.552;2023-04-24T12:42:49;9.80;99.90
51725;DHT22;37801;53.224;6.552;2023-04-24T12:45:16;9.80;99.90
51725;DHT22;37801;53.224;6.552;2023-04-24T12:47:44;9.80;99.90
51725;DHT22;37801;53.224;6.552;2023-04-24T12:50:11;9.80;99.90
51725;DHT22;37801;53.224;6.552;2023-04-24T12:52:38;9.90;99.90
51725;DHT22;37801;53.224;6.552;2023-04-24T12:55:05;9.90;99.90
51725;DHT22;37801;53.224;6.552;2023-04-24T12:57:34;9.80;99.90
51725;DHT22;37801;53.224;6.552;2023-04-24T13:00:00;9.70;99.90
51725;DHT22;37801;53.224;6.552;2023-04-24T13:02:28;9.80;99.90
51725;DHT22;37801;53.224;6.552;2023-04-24T13:04:55;9.70;99.90
51725;DHT22;37801;53.224;6.552;2023-04-24T13:07:21;9.70;99.90
51725;DHT22;37801;53.224;6.552;2023-04-24T13:09:49;9.60;99.90
51725;DHT22;37801;53.224;6.552;2023-04-24T13:12:15;9.50;99.90
51725;DHT22;37801;53.224;6.552;2023-04-24T13:14:41;9.50;99.90
51725;DHT22;37801;53.224;6.552;2023-04-24T13:17:07;9.40;99.90
51725;DHT22;37801;53.224;6.552;2023-04-24T13:19:38;9.40;99.90
51725;DHT22;37801;53.224;6.552;2023-04-24T13:22:04;9.30;99.90
51725;DHT22;37801;53.224;6.552;2023-04-24T13:24:30;9.30;99.90
51725;DHT22;37801;53.224;6.552;2023-04-24T13:26:56;9.30;99.90
51725;DHT22;37801;53.224;6.552;2023-04-24T13:29:22;9.30;99.90
51725;DHT22;37801;53.224;6.552;2023-04-24T13:31:50;9.30;99.90
51725;DHT22;37801;53.224;6.552;2023-04-24T13:34:17;9.30;99.90
51725;DHT22;37801;53.224;6.552;2023-04-24T13:36:43;9.40;99.90
51725;DHT22;37801;53.224;6.552;2023-04-24T13:39:09;9.50;99.90
51725;DHT22;37801;53.224;6.552;2023-04-24T13:41:35;9.40;99.90
51725;DHT22;37801;53.224;6.552;2023-04-24T13:44:02;9.40;99.90
51725;DHT22;37801;53.224;6.552;2023-04-24T13:46:28;9.40;99.90
51725;DHT22;37801;53.224;6.552;2023-04-24T13:48:54;9.50;99.90
51725;DHT22;37801;53.224;6.552;2023-04-24T13:51:19;9.50;99.90
51725;DHT22;37801;53.224;6.552;2023-04-24T13:53:45;9.60;99.90
51725;DHT22;37801;53.224;6.552;2023-04-24T13:56:11;9.60;99.90
51725;DHT22;37801;53.224;6.552;2023-04-24T13:58:38;9.60;99.90
51725;DHT22;37801;53.224;6.552;2023-04-24T14:01:04;9.40;99.90
51725;DHT22;37801;53.224;6.552;2023-04-24T14:03:30;9.40;99.90
51725;DHT22;37801;53.224;6.552;2023-04-24T14:05:56;9.40;99.90
51725;DHT22;37801;53.224;6.552;2023-04-24T14:08:21;9.30;99.90
51725;DHT22;37801;53.224;6.552;2023-04-24T14:10:47;9.30;99.90
51725;DHT22;37801;53.224;6.552;2023-04-24T14:13:13;9.30;99.90
51725;DHT22;37801;53.224;6.552;2023-04-24T14:15:39;9.30;99.90
51725;DHT22;37801;53.224;6.552;2023-04-24T14:18:05;9.40;99.90
51725;DHT22;37801;53.224;6.552;2023-04-24T14:20:31;9.40;99.90
51725;DHT22;37801;53.224;6.552;2023-04-24T14:22:57;9.50;99.90
51725;DHT22;37801;53.224;6.552;2023-04-24T14:25:26;9.50;99.90
51725;DHT22;37801;53.224;6.552;2023-04-24T14:27:51;9.40;99.90
51725;DHT22;37801;53.224;6.552;2023-04-24T14:30:18;9.50;99.90
51725;DHT22;37801;53.224;6.552;2023-04-24T14:32:44;9.40;99.90
51725;DHT22;37801;53.224;6.552;2023-04-24T14:35:10;9.50;99.90
51725;DHT22;37801;53.224;6.552;2023-04-24T14:37:36;9.50;99.90
51725;DHT22;37801;53.224;6.552;2023-04-24T14:40:03;9.50;99.90
51725;DHT22;37801;53.224;6.552;2023-04-24T14:42:30;9.50;99.90
51725;DHT22;37801;53.224;6.552;2023-04-24T14:44:56;9.50;99.90
51725;DHT22;37801;53.224;6.552;2023-04-24T14:47:22;9.50;99.90
51725;DHT22;37801;53.224;6.552;2023-04-24T14:49:48;9.60;99.90
51725;DHT22;37801;53.224;6.552;2023-04-24T14:52:14;9.70;99.90
51725;DHT22;37801;53.224;6.552;2023-04-24T14:54:39;9.70;99.90
51725;DHT22;37801;53.224;6.552;2023-04-24T14:57:05;9.70;99.90
51725;DHT22;37801;53.224;6.552;2023-04-24T14:59:31;9.60;99.90
51725;DHT22;37801;53.224;6.552;2023-04-24T15:01:57;9.50;99.90
51725;DHT22;37801;53.224;6.552;2023-04-24T15:04:27;9.50;99.90
51725;DHT22;37801;53.224;6.552;2023-04-24T15:06:53;9.50;99.90
51725;DHT22;37801;53.224;6.552;2023-04-24T15:09:21;9.50;99.90
51725;DHT22;37801;53.224;6.552;2023-04-24T15:11:47;9.50;99.90
51725;DHT22;37801;53.224;6.552;2023-04-24T15:14:14;9.50;99.90
51725;DHT22;37801;53.224;6.552;2023-04-24T15:16:40;9.60;99.90
51725;DHT22;37801;53.224;6.552;2023-04-24T15:19:06;9.70;99.90
51725;DHT22;37801;53.224;6.552;2023-04-24T15:21:32;9.70;99.90
51725;DHT22;37801;53.224;6.552;2023-04-24T15:23:58;9.70;99.90
51725;DHT22;37801;53.224;6.552;2023-04-24T15:26:24;9.70;99.90
51725;DHT22;37801;53.224;6.552;2023-04-24T15:28:51;9.70;99.90
51725;DHT22;37801;53.224;6.552;2023-04-24T15:31:17;9.70;99.90
51725;DHT22;37801;53.224;6.552;2023-04-24T15:33:43;9.70;99.90
51725;DHT22;37801;53.224;6.552;2023-04-24T15:36:10;9.70;99.90
51725;DHT22;37801;53.224;6.552;2023-04-24T15:38:36;9.80;99.90
51725;DHT22;37801;53.224;6.552;2023-04-24T15:41:03;9.80;99.90
51725;DHT22;37801;53.224;6.552;2023-04-24T15:43:29;9.70;99.90
51725;DHT22;37801;53.224;6.552;2023-04-24T15:45:57;9.70;99.90
51725;DHT22;37801;53.224;6.552;2023-04-24T15:48:22;9.70;99.90